createdAt,value
2018-04-26T00:00:36.993Z,47.80
2018-04-26T00:03:03.966Z,48.40
2018-04-26T00:05:31.661Z,48.30
2018-04-26T00:07:58.570Z,47.90
2018-04-26T00:10:25.465Z,48.00
2018-04-26T00:12:52.358Z,48.50
2018-04-26T00:15:19.988Z,48.50
2018-04-26T00:17:46.974Z,48.80
2018-04-26T00:20:13.849Z,48.60
2018-04-26T00:22:40.782Z,49.40
2018-04-26T00:25:08.377Z,48.60
2018-04-26T00:27:35.297Z,48.50
2018-04-26T00:30:02.192Z,49.00
2018-04-26T00:32:29.701Z,48.60
2018-04-26T00:34:56.589Z,48.50
2018-04-26T00:37:23.472Z,48.50
2018-04-26T00:39:52.013Z,48.50
2018-04-26T00:42:18.940Z,48.50
2018-04-26T00:44:45.817Z,48.90
2018-04-26T00:47:13.781Z,49.10
2018-04-26T00:49:40.694Z,49.20
2018-04-26T00:52:08.401Z,49.10
2018-04-26T00:54:35.853Z,49.30
2018-04-26T00:57:02.741Z,50.90
2018-04-26T00:59:29.620Z,50.90
2018-04-26T01:01:56.670Z,51.00
2018-04-26T01:04:25.001Z,53.30
2018-04-26T01:06:52.785Z,54.30
2018-04-26T01:09:19.688Z,54.80
2018-04-26T01:11:47.316Z,54.80
2018-04-26T01:14:14.201Z,54.80
2018-04-26T01:16:43.204Z,54.80
2018-04-26T01:19:10.894Z,54.50
2018-04-26T01:21:37.796Z,54.90
2018-04-26T01:24:05.427Z,56.30
2018-04-26T01:26:32.304Z,56.30
2018-04-26T01:29:00.744Z,56.40
2018-04-26T01:31:27.641Z,55.80
2018-04-26T01:33:54.556Z,55.60
2018-04-26T01:36:34.293Z,55.60
2018-04-26T01:39:01.192Z,55.50
2018-04-26T01:41:29.240Z,55.80
2018-04-26T01:43:56.132Z,55.40
2018-04-26T01:46:22.988Z,54.90
2018-04-26T01:48:49.869Z,56.40
2018-04-26T01:51:16.797Z,57.40
2018-04-26T01:53:44.701Z,56.80
2018-04-26T01:56:11.585Z,57.00
2018-04-26T01:58:39.564Z,57.40
2018-04-26T02:01:06.455Z,58.20
2018-04-26T02:03:34.686Z,58.40
2018-04-26T02:06:02.856Z,58.90
2018-04-26T02:08:32.350Z,58.70
2018-04-26T02:10:59.241Z,59.40
2018-04-26T02:13:26.649Z,58.10
2018-04-26T02:15:56.021Z,58.30
2018-04-26T02:18:22.917Z,57.10
2018-04-26T02:20:50.544Z,58.60
2018-04-26T02:23:17.484Z,58.60
2018-04-26T02:25:44.502Z,59.90
2018-04-26T02:28:12.657Z,60.60
2018-04-26T02:30:39.539Z,59.90
2018-04-26T02:33:06.412Z,59.40
2018-04-26T02:35:35.628Z,58.30
2018-04-26T02:38:03.244Z,59.10
2018-04-26T02:40:30.517Z,59.10
2018-04-26T02:42:57.396Z,59.60
2018-04-26T02:45:25.096Z,61.50
2018-04-26T02:47:51.963Z,60.90
2018-04-26T02:50:22.304Z,61.30
2018-04-26T02:52:50.162Z,61.40
2018-04-26T02:55:17.096Z,61.70
2018-04-26T02:57:44.453Z,62.80
2018-04-26T03:00:11.337Z,63.10
2018-04-26T03:02:38.220Z,64.00
2018-04-26T03:05:07.488Z,64.20
2018-04-26T03:07:34.356Z,63.90
2018-04-26T03:10:01.277Z,64.70
2018-04-26T03:12:29.107Z,65.30
2018-04-26T03:14:55.968Z,65.80
2018-04-26T03:17:23.301Z,65.80
2018-04-26T03:19:50.197Z,65.50
2018-04-26T03:22:17.065Z,65.60
2018-04-26T03:24:43.988Z,66.10
2018-04-26T03:27:11.318Z,66.30
2018-04-26T03:29:38.645Z,66.60
2018-04-26T03:32:05.529Z,66.90
2018-04-26T03:34:32.441Z,67.00
2018-04-26T03:37:00.065Z,68.20
2018-04-26T03:39:26.973Z,68.20
2018-04-26T03:41:53.893Z,68.40
2018-04-26T03:44:21.536Z,68.90
2018-04-26T03:46:48.432Z,68.90
2018-04-26T03:49:16.964Z,69.30
2018-04-26T03:51:43.925Z,69.30
2018-04-26T03:54:12.384Z,68.80
2018-04-26T03:56:40.273Z,68.80
2018-04-26T03:59:07.145Z,68.40
2018-04-26T04:01:46.145Z,68.80
2018-04-26T04:04:26.623Z,68.70
2018-04-26T04:06:53.546Z,68.80
2018-04-26T04:09:20.416Z,69.30
2018-04-26T04:11:48.018Z,69.00
2018-04-26T04:14:15.689Z,68.50
2018-04-26T04:16:42.969Z,68.00
2018-04-26T04:19:09.860Z,67.80
2018-04-26T04:21:37.200Z,68.20
2018-04-26T04:24:04.121Z,68.20
2018-04-26T04:26:31.007Z,68.80
2018-04-26T04:28:59.724Z,68.90
2018-04-26T04:31:26.645Z,69.40
2018-04-26T04:33:53.529Z,69.20
2018-04-26T04:36:21.144Z,70.00
2018-04-26T04:38:49.265Z,70.00
2018-04-26T04:41:16.552Z,69.00
2018-04-26T04:43:46.201Z,68.60
2018-04-26T04:46:13.068Z,68.60
2018-04-26T04:48:39.984Z,69.40
2018-04-26T04:51:07.342Z,69.20
2018-04-26T04:53:34.232Z,69.10
2018-04-26T04:56:01.089Z,69.00
2018-04-26T04:58:27.965Z,69.50
2018-04-26T05:00:54.824Z,69.50
2018-04-26T05:03:21.896Z,68.90
2018-04-26T05:05:48.764Z,69.20
2018-04-26T05:08:15.668Z,68.50
2018-04-26T05:10:42.524Z,68.60
2018-04-26T05:13:11.039Z,68.80
2018-04-26T05:15:38.797Z,68.20
2018-04-26T05:18:05.697Z,67.70
2018-04-26T05:20:32.575Z,67.30
2018-04-26T05:22:59.441Z,67.20
2018-04-26T05:25:26.308Z,67.40
2018-04-26T05:27:54.295Z,69.10
2018-04-26T05:30:21.200Z,70.00
2018-04-26T05:32:48.809Z,71.50
2018-04-26T05:35:16.955Z,71.70
2018-04-26T05:37:43.844Z,71.70
2018-04-26T05:40:10.757Z,71.80
2018-04-26T05:42:37.708Z,71.20
2018-04-26T05:45:05.312Z,69.40
2018-04-26T05:47:32.220Z,69.30
2018-04-26T05:49:59.170Z,68.20
2018-04-26T05:52:27.212Z,66.50
2018-04-26T05:54:54.072Z,66.50
2018-04-26T05:57:22.049Z,65.10
2018-04-26T05:59:49.641Z,63.70
2018-04-26T06:02:16.580Z,63.60
2018-04-26T06:04:44.600Z,63.50
2018-04-26T06:07:11.469Z,63.30
2018-04-26T06:09:39.092Z,62.10
2018-04-26T06:12:06.041Z,62.00
2018-04-26T06:14:33.446Z,62.40
2018-04-26T06:17:00.447Z,62.60
2018-04-26T06:19:27.416Z,62.10
2018-04-26T06:21:55.064Z,61.80
2018-04-26T06:24:21.924Z,61.30
2018-04-26T06:26:49.137Z,61.10
2018-04-26T06:29:16.668Z,59.70
2018-04-26T06:31:43.538Z,58.20
2018-04-26T06:34:10.744Z,57.60
2018-04-26T06:36:37.617Z,56.20
2018-04-26T06:39:04.651Z,54.40
2018-04-26T06:41:33.040Z,54.20
2018-04-26T06:43:59.905Z,52.20
2018-04-26T06:46:26.764Z,49.60
2018-04-26T06:48:54.009Z,49.20
2018-04-26T06:51:20.876Z,48.60
2018-04-26T06:53:49.043Z,48.00
2018-04-26T06:56:16.661Z,45.30
2018-04-26T06:58:43.528Z,45.10
2018-04-26T07:01:10.444Z,43.80
2018-04-26T07:03:37.729Z,44.70
2018-04-26T07:06:05.452Z,43.30
2018-04-26T07:08:32.328Z,41.90
2018-04-26T07:10:59.292Z,41.20
2018-04-26T07:13:26.157Z,42.40
2018-04-26T07:15:53.051Z,41.50
2018-04-26T07:18:23.709Z,40.00
2018-04-26T07:20:57.144Z,40.90
2018-04-26T07:23:24.144Z,41.60
2018-04-26T07:25:51.017Z,39.60
2018-04-26T07:28:17.902Z,39.40
2018-04-26T07:30:47.577Z,39.30
2018-04-26T07:33:14.472Z,38.20
2018-04-26T07:35:41.373Z,39.00
2018-04-26T07:38:08.255Z,38.40
2018-04-26T07:40:35.139Z,36.10
2018-04-26T07:43:03.148Z,37.00
2018-04-26T07:45:30.419Z,36.50
2018-04-26T07:47:58.297Z,36.40
2018-04-26T07:50:25.240Z,36.50
2018-04-26T07:52:52.120Z,36.00
2018-04-26T07:55:21.669Z,37.10
2018-04-26T07:57:48.549Z,37.10
2018-04-26T08:00:16.488Z,37.80
2018-04-26T08:02:43.376Z,37.70
2018-04-26T08:05:11.004Z,36.30
2018-04-26T08:07:39.074Z,36.30
2018-04-26T08:10:05.958Z,37.00
2018-04-26T08:12:32.885Z,37.50
2018-04-26T08:15:00.545Z,37.70
2018-04-26T08:17:29.627Z,37.00
2018-04-26T08:19:56.769Z,36.90
2018-04-26T08:22:24.237Z,37.10
2018-04-26T08:24:51.121Z,37.60
2018-04-26T08:27:18.053Z,36.80
2018-04-26T08:29:44.952Z,37.20
2018-04-26T08:32:12.865Z,37.60
2018-04-26T08:34:39.744Z,36.90
2018-04-26T08:37:06.640Z,37.70
2018-04-26T08:39:33.532Z,37.50
2018-04-26T08:42:00.416Z,38.30
2018-04-26T08:44:30.245Z,37.80
2018-04-26T08:46:57.868Z,38.00
2018-04-26T08:49:24.745Z,38.00
2018-04-26T08:51:52.755Z,35.80
2018-04-26T08:54:19.681Z,35.80
2018-04-26T08:56:46.644Z,36.00
2018-04-26T08:59:13.525Z,35.00
2018-04-26T09:01:40.408Z,35.20
2018-04-26T09:04:07.305Z,35.70
2018-04-26T09:06:34.260Z,35.40
2018-04-26T09:09:03.524Z,35.60
2018-04-26T09:11:30.413Z,35.20
2018-04-26T09:13:58.168Z,35.50
2018-04-26T09:16:25.035Z,33.70
2018-04-26T09:18:51.924Z,33.40
2018-04-26T09:21:19.904Z,32.90
2018-04-26T09:23:46.805Z,32.50
2018-04-26T09:26:13.705Z,33.80
2018-04-26T09:28:40.594Z,31.90
2018-04-26T09:31:07.465Z,32.00
2018-04-26T09:33:34.433Z,32.70
2018-04-26T09:36:02.209Z,31.60
2018-04-26T09:38:29.136Z,33.40
2018-04-26T09:40:56.029Z,31.60
2018-04-26T09:43:23.664Z,31.40
2018-04-26T09:45:51.644Z,31.40
2018-04-26T09:48:19.287Z,31.70
2018-04-26T09:50:47.669Z,31.70
2018-04-26T09:53:14.553Z,30.80
2018-04-26T09:55:42.181Z,30.80
2018-04-26T09:58:10.545Z,30.80
2018-04-26T10:00:43.356Z,31.60
2018-04-26T10:03:10.993Z,30.90
2018-04-26T10:05:43.708Z,31.00
2018-04-26T10:08:13.104Z,31.60
2018-04-26T10:10:39.997Z,30.00
2018-04-26T10:13:06.876Z,30.30
2018-04-26T10:15:34.615Z,30.60
2018-04-26T10:18:01.495Z,30.60
2018-04-26T10:20:30.261Z,30.60
2018-04-26T10:22:57.148Z,29.80
2018-04-26T10:25:24.034Z,29.90
2018-04-26T10:27:50.920Z,30.90
2018-04-26T10:30:17.796Z,30.30
2018-04-26T10:32:45.434Z,29.90
2018-04-26T10:35:12.378Z,29.60
2018-04-26T10:37:39.749Z,29.20
2018-04-26T10:40:06.633Z,29.30
2018-04-26T10:42:33.517Z,29.10
2018-04-26T10:45:00.502Z,29.70
2018-04-26T10:47:27.392Z,29.40
2018-04-26T10:49:54.289Z,28.80
2018-04-26T10:52:21.659Z,29.30
2018-04-26T10:54:48.536Z,29.40
2018-04-26T10:57:16.430Z,29.40
2018-04-26T10:59:43.371Z,29.20
2018-04-26T11:02:10.261Z,29.20
2018-04-26T11:04:37.157Z,28.50
2018-04-26T11:07:04.597Z,28.70
2018-04-26T11:09:34.728Z,28.10
2018-04-26T11:12:01.605Z,27.90
2018-04-26T11:14:29.393Z,28.10
2018-04-26T11:16:56.256Z,28.30
2018-04-26T11:19:23.125Z,28.20
2018-04-26T11:21:51.842Z,27.70
2018-04-26T11:24:18.796Z,27.10
2018-04-26T11:26:45.686Z,27.60
2018-04-26T11:29:13.238Z,27.70
2018-04-26T11:31:40.124Z,27.30
2018-04-26T11:34:07.053Z,27.50
2018-04-26T11:36:34.768Z,27.80
2018-04-26T11:39:01.661Z,28.00
2018-04-26T11:41:28.538Z,27.40
2018-04-26T11:43:55.826Z,27.20
2018-04-26T11:46:23.324Z,27.30
2018-04-26T11:48:50.205Z,27.70
2018-04-26T11:51:17.180Z,28.20
2018-04-26T11:53:44.059Z,28.90
2018-04-26T11:56:10.944Z,28.80
2018-04-26T11:58:40.012Z,28.80
2018-04-26T12:01:06.901Z,29.10
2018-04-26T12:03:33.773Z,29.20
2018-04-26T12:06:01.398Z,29.70
2018-04-26T12:08:29.031Z,29.00
2018-04-26T12:10:57.233Z,29.00
2018-04-26T12:13:24.213Z,29.80
2018-04-26T12:15:51.098Z,29.30
2018-04-26T12:18:18.004Z,29.20
2018-04-26T12:20:45.306Z,29.70
2018-04-26T12:23:12.968Z,28.80
2018-04-26T12:25:39.857Z,29.20
2018-04-26T12:28:06.836Z,28.90
2018-04-26T12:30:33.725Z,29.20
2018-04-26T12:33:00.626Z,29.50
2018-04-26T12:35:28.757Z,29.30
2018-04-26T12:37:55.645Z,29.10
2018-04-26T12:40:22.758Z,29.10
2018-04-26T12:42:51.893Z,28.70
2018-04-26T12:45:18.838Z,29.00
2018-04-26T12:47:46.266Z,28.90
2018-04-26T12:50:14.279Z,29.10
2018-04-26T12:52:41.203Z,29.90
2018-04-26T12:55:08.153Z,29.30
2018-04-26T12:57:35.150Z,28.90
2018-04-26T13:00:03.858Z,28.30
2018-04-26T13:02:30.817Z,27.80
2018-04-26T13:04:57.868Z,28.10
2018-04-26T13:07:25.022Z,26.90
2018-04-26T13:09:52.207Z,27.10
2018-04-26T13:12:20.864Z,27.10
2018-04-26T13:14:47.745Z,27.30
2018-04-26T13:17:14.634Z,27.60
2018-04-26T13:19:41.924Z,27.70
2018-04-26T13:22:09.609Z,27.60
2018-04-26T13:24:37.345Z,27.60
2018-04-26T13:27:04.694Z,28.10
2018-04-26T13:29:31.637Z,28.30
2018-04-26T13:31:58.529Z,27.80
2018-04-26T13:34:25.828Z,27.00
2018-04-26T13:36:53.910Z,27.50
2018-04-26T13:39:20.808Z,27.50
2018-04-26T13:41:47.686Z,27.20
2018-04-26T13:44:14.589Z,27.50
2018-04-26T13:46:41.525Z,27.50
2018-04-26T13:49:09.869Z,27.80
2018-04-26T13:51:37.543Z,26.90
2018-04-26T13:54:04.417Z,26.80
2018-04-26T13:56:31.716Z,26.80
2018-04-26T13:58:58.589Z,27.60
2018-04-26T14:01:26.916Z,27.30
2018-04-26T14:03:53.883Z,27.20
2018-04-26T14:06:20.779Z,26.50
2018-04-26T14:08:47.648Z,26.50
2018-04-26T14:11:14.601Z,27.30
2018-04-26T14:13:43.221Z,27.30
2018-04-26T14:16:10.864Z,27.30
2018-04-26T14:18:37.769Z,27.30
2018-04-26T14:21:04.644Z,27.30
2018-04-26T14:23:31.528Z,27.80
2018-04-26T14:25:58.960Z,27.80
2018-04-26T14:28:26.573Z,26.90
2018-04-26T14:30:53.510Z,26.90
2018-04-26T14:33:21.152Z,26.90
2018-04-26T14:35:48.103Z,26.50
2018-04-26T14:38:15.129Z,26.80
2018-04-26T14:40:42.553Z,27.10
2018-04-26T14:43:09.542Z,26.80
2018-04-26T14:45:36.449Z,27.20
2018-04-26T14:48:03.709Z,27.40
2018-04-26T14:50:31.079Z,27.60
2018-04-26T14:52:58.712Z,27.00
2018-04-26T14:55:26.691Z,27.00
2018-04-26T14:57:53.617Z,27.10
2018-04-26T15:00:20.507Z,26.90
2018-04-26T15:02:49.285Z,26.80
2018-04-26T15:05:16.949Z,26.70
2018-04-26T15:07:43.845Z,26.70
2018-04-26T15:10:10.760Z,27.20
2018-04-26T15:12:37.636Z,27.50
2018-04-26T15:15:04.654Z,27.20
2018-04-26T15:17:33.373Z,27.50
2018-04-26T15:20:00.256Z,27.50
2018-04-26T15:22:27.144Z,27.90
2018-04-26T15:24:54.780Z,27.90
2018-04-26T15:27:22.598Z,28.20
2018-04-26T15:29:49.478Z,28.20
2018-04-26T15:32:17.308Z,27.90
2018-04-26T15:34:44.181Z,27.90
2018-04-26T15:37:11.062Z,28.50
2018-04-26T15:39:38.369Z,28.50
2018-04-26T15:42:05.993Z,28.50
2018-04-26T15:44:33.985Z,28.50
2018-04-26T15:47:00.872Z,28.50
2018-04-26T15:49:27.765Z,29.00
2018-04-26T15:51:55.444Z,28.90
2018-04-26T15:54:34.912Z,28.60
2018-04-26T15:57:32.476Z,28.30
2018-04-26T16:00:12.176Z,29.10
2018-04-26T16:03:00.920Z,28.30
2018-04-26T16:05:40.085Z,29.00
2018-04-26T16:08:25.115Z,29.50
2018-04-26T16:11:10.009Z,28.70
2018-04-26T16:14:00.297Z,28.60
2018-04-26T16:16:47.808Z,29.10
2018-04-26T16:19:32.817Z,29.10
2018-04-26T16:22:18.059Z,28.50
2018-04-26T16:24:56.980Z,28.80
2018-04-26T16:27:42.624Z,28.80
2018-04-26T16:30:21.397Z,28.90
2018-04-26T16:33:06.336Z,29.30
2018-04-26T16:35:47.602Z,29.20
2018-04-26T16:38:29.119Z,29.10
2018-04-26T16:40:56.003Z,29.40
2018-04-26T16:43:22.885Z,29.90
2018-04-26T16:45:49.825Z,30.30
2018-04-26T16:48:16.698Z,30.50
2018-04-26T16:50:43.662Z,30.40
2018-04-26T16:53:11.711Z,30.20
2018-04-26T16:55:38.604Z,30.10
2018-04-26T16:58:05.517Z,29.80
2018-04-26T17:00:33.193Z,30.30
2018-04-26T17:03:00.131Z,30.30
2018-04-26T17:05:27.056Z,30.30
2018-04-26T17:07:53.978Z,30.10
2018-04-26T17:10:21.316Z,30.00
2018-04-26T17:12:48.184Z,30.50
2018-04-26T17:15:15.821Z,30.80
2018-04-26T17:17:42.716Z,31.30
2018-04-26T17:20:10.350Z,31.50
2018-04-26T17:22:38.227Z,31.50
2018-04-26T17:25:05.136Z,32.00
2018-04-26T17:27:32.042Z,32.20
2018-04-26T17:29:59.665Z,31.80
2018-04-26T17:32:26.533Z,31.70
2018-04-26T17:34:53.522Z,31.50
2018-04-26T17:37:21.705Z,31.40
2018-04-26T17:39:49.985Z,31.80
2018-04-26T17:42:16.958Z,31.80
2018-04-26T17:44:43.797Z,31.80
2018-04-26T17:47:10.725Z,32.30
2018-04-26T17:49:37.652Z,32.40
2018-04-26T17:52:04.552Z,32.50
2018-04-26T17:54:31.427Z,32.70
2018-04-26T17:56:58.317Z,33.10
2018-04-26T17:59:25.754Z,33.00
2018-04-26T18:01:52.649Z,33.00
2018-04-26T18:04:20.057Z,33.40
2018-04-26T18:06:46.943Z,33.40
2018-04-26T18:09:14.545Z,33.60
2018-04-26T18:11:41.929Z,33.60
2018-04-26T18:14:08.860Z,33.80
2018-04-26T18:16:35.768Z,33.60
2018-04-26T18:19:02.656Z,33.90
2018-04-26T18:21:29.618Z,33.90
2018-04-26T18:23:57.297Z,34.30
2018-04-26T18:26:24.165Z,34.10
2018-04-26T18:28:52.038Z,34.10
2018-04-26T18:31:18.927Z,34.30
2018-04-26T18:33:45.818Z,34.60
2018-04-26T18:36:12.852Z,34.80
2018-04-26T18:38:39.732Z,34.50
2018-04-26T18:41:06.656Z,34.70
2018-04-26T18:43:34.285Z,34.80
2018-04-26T18:46:01.908Z,34.90
2018-04-26T18:48:28.825Z,34.80
2018-04-26T18:50:57.208Z,35.00
2018-04-26T18:53:24.806Z,34.90
2018-04-26T18:55:51.669Z,35.20
2018-04-26T18:58:18.562Z,35.20
2018-04-26T19:00:47.247Z,35.30
2018-04-26T19:03:14.133Z,35.50
2018-04-26T19:05:41.921Z,36.90
2018-04-26T19:08:08.794Z,36.90
2018-04-26T19:10:35.664Z,36.30
2018-04-26T19:13:04.408Z,36.30
2018-04-26T19:15:31.276Z,36.50
2018-04-26T19:17:58.756Z,36.60
2018-04-26T19:20:26.081Z,36.90
2018-04-26T19:22:53.711Z,37.20
2018-04-26T19:25:20.636Z,37.20
2018-04-26T19:27:47.628Z,37.20
2018-04-26T19:30:15.049Z,37.60
2018-04-26T19:32:42.670Z,37.80
2018-04-26T19:35:09.561Z,37.70
2018-04-26T19:37:37.389Z,38.00
2018-04-26T19:40:04.297Z,37.90
2018-04-26T19:42:31.575Z,38.10
2018-04-26T19:44:58.457Z,38.10
2018-04-26T19:47:26.075Z,38.60
2018-04-26T19:49:53.408Z,38.60
2018-04-26T19:52:20.283Z,38.60
2018-04-26T19:54:47.177Z,38.80
2018-04-26T19:57:14.142Z,38.80
2018-04-26T19:59:41.017Z,38.90
2018-04-26T20:02:08.305Z,39.10
2018-04-26T20:04:36.292Z,39.00
2018-04-26T20:07:03.207Z,39.00
2018-04-26T20:09:30.853Z,39.30
2018-04-26T20:11:58.210Z,39.20
2018-04-26T20:14:25.125Z,39.40
2018-04-26T20:16:52.021Z,39.20
2018-04-26T20:19:19.329Z,39.50
2018-04-26T20:21:46.228Z,39.20
2018-04-26T20:24:13.087Z,39.60
2018-04-26T20:26:41.268Z,39.60
2018-04-26T20:29:08.169Z,39.80
2018-04-26T20:31:35.867Z,40.00
2018-04-26T20:34:03.176Z,39.90
2018-04-26T20:36:30.057Z,40.00
2018-04-26T20:38:57.373Z,40.40
2018-04-26T20:41:25.011Z,40.30
2018-04-26T20:43:52.969Z,41.00
2018-04-26T20:46:19.863Z,40.70
2018-04-26T20:48:46.880Z,40.50
2018-04-26T20:51:13.810Z,40.40
2018-04-26T20:53:40.694Z,40.80
2018-04-26T20:56:09.069Z,40.60
2018-04-26T20:58:35.952Z,40.80
2018-04-26T21:01:02.856Z,40.90
2018-04-26T21:03:30.182Z,40.80
2018-04-26T21:05:57.122Z,41.00
2018-04-26T21:08:25.091Z,41.00
2018-04-26T21:10:52.570Z,41.40
2018-04-26T21:13:19.919Z,41.50
2018-04-26T21:15:46.847Z,41.40
2018-04-26T21:18:14.312Z,41.60
2018-04-26T21:20:41.741Z,41.60
2018-04-26T21:23:08.633Z,41.60
2018-04-26T21:25:37.920Z,42.60
2018-04-26T21:28:04.813Z,41.90
2018-04-26T21:30:31.709Z,42.40
2018-04-26T21:33:00.600Z,42.40
2018-04-26T21:35:27.527Z,42.20
2018-04-26T21:37:54.480Z,42.50
2018-04-26T21:40:21.369Z,43.00
2018-04-26T21:42:48.264Z,43.50
2018-04-26T21:45:15.181Z,44.10
2018-04-26T21:47:42.581Z,45.40
2018-04-26T21:50:15.409Z,45.80
2018-04-26T21:52:48.860Z,45.80
2018-04-26T21:55:21.732Z,46.00
2018-04-26T21:57:56.725Z,45.30
2018-04-26T22:00:29.865Z,45.40
2018-04-26T22:02:56.640Z,45.10
2018-04-26T22:05:25.564Z,45.40
2018-04-26T22:07:52.455Z,45.90
2018-04-26T22:10:20.081Z,48.20
2018-04-26T22:12:47.528Z,48.10
2018-04-26T22:15:14.400Z,48.60
2018-04-26T22:17:41.288Z,48.50
2018-04-26T22:20:09.702Z,48.50
2018-04-26T22:22:36.572Z,48.80
2018-04-26T22:25:03.494Z,49.60
2018-04-26T22:27:30.385Z,50.90
2018-04-26T22:29:57.278Z,50.80
2018-04-26T22:32:24.160Z,51.50
2018-04-26T22:34:52.105Z,52.40
2018-04-26T22:37:20.545Z,51.50
2018-04-26T22:39:47.459Z,52.20
2018-04-26T22:42:14.389Z,52.50
2018-04-26T22:44:41.321Z,53.10
2018-04-26T22:47:08.250Z,51.80
2018-04-26T22:49:36.373Z,53.40
2018-04-26T22:52:03.258Z,53.00
2018-04-26T22:54:30.128Z,51.10
2018-04-26T22:56:57.794Z,51.00
2018-04-26T22:59:24.674Z,51.10
2018-04-26T23:01:51.976Z,51.00
2018-04-26T23:04:20.468Z,50.60
2018-04-26T23:06:47.331Z,50.60
2018-04-26T23:09:14.969Z,51.10
2018-04-26T23:11:41.860Z,51.10
2018-04-26T23:14:08.806Z,51.20
2018-04-26T23:16:35.672Z,51.30
2018-04-26T23:19:03.184Z,51.70
2018-04-26T23:21:30.430Z,52.00
2018-04-26T23:23:58.069Z,53.50
2018-04-26T23:26:27.417Z,53.60
2018-04-26T23:28:54.286Z,53.70
2018-04-26T23:31:21.181Z,53.00
2018-04-26T23:33:49.276Z,54.70
2018-04-26T23:36:16.589Z,54.80
2018-04-26T23:38:44.144Z,54.80
2018-04-26T23:41:11.057Z,54.60
2018-04-26T23:43:37.941Z,54.70
2018-04-26T23:46:05.342Z,54.80
2018-04-26T23:48:32.811Z,55.40
2018-04-26T23:51:00.305Z,56.30
2018-04-26T23:53:27.181Z,57.20
2018-04-26T23:55:54.104Z,57.10
2018-04-26T23:58:22.031Z,57.80
